Time;durP1;ratioP1;P1;durP2;ratioP2;P2;SDS_P1;SDS_P2;PMS_P1;PMS_P2;Temp;Humidity;BMP_temperature;BMP_pressure;BME280_temperature;BME280_humidity;BME280_pressure;Samples;Min_cycle;Max_cycle;Signal;HPM_P1;HPM_P2
2023/03/03 00:00:40;;;;;;;32.08;21.08;;;;;;;6.77;58.63;101684.63;5052727;28;20442;-79
2023/03/03 00:03:09;;;;;;;34.55;21.88;;;;;;;6.73;58.76;101677.06;5053193;28;20380;-78
2023/03/03 00:05:35;;;;;;;33.72;22.70;;;;;;;6.79;58.66;101682.69;5054423;28;20403;-78
2023/03/03 00:08:01;;;;;;;34.80;22.02;;;;;;;6.86;58.62;101678.63;5053965;28;20380;-78
2023/03/03 00:10:27;;;;;;;32.13;21.33;;;;;;;6.93;58.20;101673.69;5054521;28;20463;-78
2023/03/03 00:12:53;;;;;;;33.10;21.73;;;;;;;6.94;58.25;101667.44;5065479;28;20417;-78
2023/03/03 00:15:22;;;;;;;33.45;21.80;;;;;;;7.00;58.29;101676.66;5069642;28;20418;-78
2023/03/03 00:17:47;;;;;;;35.60;22.17;;;;;;;6.86;58.44;101661.94;5052401;28;20461;-78
2023/03/03 00:20:39;;;;;;;32.97;21.77;;;;;;;6.84;58.06;101666.50;5052535;28;20776;-78
2023/03/03 00:23:29;;;;;;;33.30;21.50;;;;;;;6.73;58.40;101667.34;5052166;28;20393;-78
2023/03/03 00:25:56;;;;;;;31.90;21.15;;;;;;;6.70;58.23;101664.97;5051285;28;20475;-78
2023/03/03 00:28:29;;;;;;;33.33;21.98;;;;;;;6.65;58.40;101652.16;5052130;28;20392;-78
2023/03/03 00:30:58;;;;;;;30.98;21.50;;;;;;;6.70;58.29;101660.53;5056288;28;20437;-78
2023/03/03 00:33:44;;;;;;;33.20;21.85;;;;;;;6.74;58.41;101657.69;5050850;28;20385;-77
2023/03/03 00:36:27;;;;;;;32.85;21.90;;;;;;;6.78;58.38;101656.47;5052063;28;20393;-78
2023/03/03 00:38:53;;;;;;;32.95;21.38;;;;;;;6.78;58.48;101652.03;5064082;28;20393;-77
2023/03/03 00:41:27;;;;;;;32.92;21.02;;;;;;;6.80;58.13;101655.38;5070412;28;20425;-78
2023/03/03 00:43:53;;;;;;;31.63;21.35;;;;;;;6.88;58.12;101649.50;5071915;28;20390;-78
2023/03/03 00:46:21;;;;;;;33.23;21.87;;;;;;;6.89;58.09;101645.91;5065104;28;20526;-80
2023/03/03 00:48:48;;;;;;;30.55;20.63;;;;;;;6.81;58.18;101646.50;5061480;28;20399;-78
2023/03/03 00:51:31;;;;;;;33.03;20.70;;;;;;;6.81;57.99;101643.06;5063865;28;20407;-78
2023/03/03 00:53:58;;;;;;;32.33;21.27;;;;;;;6.73;58.55;101638.38;5054771;28;20412;-79
2023/03/03 00:56:26;;;;;;;33.30;21.35;;;;;;;6.75;58.34;101632.97;5060854;28;20859;-78
2023/03/03 00:58:52;;;;;;;33.72;22.17;;;;;;;6.79;58.50;101635.25;5071970;28;20383;-78
2023/03/03 01:01:18;;;;;;;33.67;21.17;;;;;;;6.81;58.36;101629.88;5058231;28;20450;-78
2023/03/03 01:03:44;;;;;;;32.55;20.90;;;;;;;6.74;58.63;101628.69;5053933;28;20541;-78
2023/03/03 01:06:11;;;;;;;31.45;20.65;;;;;;;6.73;58.36;101629.63;5058690;28;20856;-78
2023/03/03 01:08:37;;;;;;;31.65;20.98;;;;;;;6.62;58.74;101619.94;5058564;28;20403;-79
2023/03/03 01:11:11;;;;;;;33.00;20.92;;;;;;;6.64;58.79;101615.38;5072432;28;20406;-78
2023/03/03 01:13:40;;;;;;;31.43;21.10;;;;;;;6.59;59.08;101617.56;5060377;28;20412;-78
2023/03/03 01:16:06;;;;;;;39.03;25.25;;;;;;;6.60;58.91;101617.44;5068673;28;20392;-78
2023/03/03 01:18:32;;;;;;;30.33;20.40;;;;;;;6.57;59.11;101612.44;5058739;28;20392;-79
2023/03/03 01:20:59;;;;;;;34.85;24.45;;;;;;;6.52;59.45;101611.94;5057892;28;20396;-79
2023/03/03 01:23:24;;;;;;;33.00;22.05;;;;;;;6.62;59.32;101609.41;5057729;28;20400;-79
2023/03/03 01:25:50;;;;;;;30.07;19.57;;;;;;;6.68;59.19;101608.91;5058160;28;20909;-78
2023/03/03 01:28:15;;;;;;;36.78;23.38;;;;;;;6.64;59.12;101607.50;5056997;28;20539;-77
2023/03/03 01:30:40;;;;;;;34.30;21.53;;;;;;;6.53;59.53;101604.88;5056346;28;20478;-78
2023/03/03 01:33:06;;;;;;;30.80;20.00;;;;;;;6.50;59.28;101605.97;5055255;28;20388;-78
2023/03/03 01:35:31;;;;;;;30.37;20.03;;;;;;;6.52;59.51;101601.41;5073694;28;20418;-78
2023/03/03 01:37:57;;;;;;;28.33;19.42;;;;;;;6.49;59.48;101585.84;5059392;28;20604;-79
2023/03/03 01:40:26;;;;;;;30.40;20.17;;;;;;;6.59;59.59;101602.59;5067131;28;20402;-79
2023/03/03 01:42:52;;;;;;;31.52;20.35;;;;;;;6.59;59.07;101591.22;5065171;28;21082;-79
2023/03/03 01:45:21;;;;;;;30.27;20.80;;;;;;;6.58;59.60;101590.38;5071525;28;20465;-79
2023/03/03 01:47:57;;;;;;;25.90;18.73;;;;;;;6.63;59.39;101584.75;5074755;28;20805;-78
2023/03/03 01:50:39;;;;;;;31.63;20.48;;;;;;;6.53;59.67;101583.81;5073684;28;20414;-77
2023/03/03 01:53:12;;;;;;;29.92;19.50;;;;;;;6.44;59.92;101583.56;5074790;28;20419;-77
2023/03/03 01:55:38;;;;;;;29.40;20.23;;;;;;;6.42;59.80;101582.03;5074592;28;20391;-78
2023/03/03 01:58:12;;;;;;;33.70;23.25;;;;;;;6.49;59.72;101589.31;5068721;28;20455;-78
2023/03/03 02:00:41;;;;;;;25.92;18.17;;;;;;;6.46;59.82;101575.53;5055378;28;20480;-78
2023/03/03 02:03:06;;;;;;;28.98;19.23;;;;;;;6.48;59.88;101587.66;5056552;28;20399;-78
2023/03/03 02:05:34;;;;;;;28.97;19.97;;;;;;;6.46;60.16;101578.19;5071316;28;20387;-78
2023/03/03 02:08:00;;;;;;;28.47;18.57;;;;;;;6.46;60.01;101578.19;5054899;28;20407;-78
2023/03/03 02:10:28;;;;;;;26.65;19.35;;;;;;;6.44;59.88;101573.03;5055589;28;20881;-78
2023/03/03 02:12:56;;;;;;;28.20;18.53;;;;;;;6.41;59.94;101580.34;5069430;28;20387;-79
2023/03/03 02:15:21;;;;;;;28.38;18.55;;;;;;;6.28;59.89;101573.44;5074709;28;20389;-78
2023/03/03 02:17:50;;;;;;;27.13;19.45;;;;;;;6.12;60.35;101571.16;5074236;28;20735;-78
2023/03/03 02:20:18;;;;;;;27.47;18.53;;;;;;;6.15;60.60;101570.06;5056786;28;20385;-79
2023/03/03 02:22:52;;;;;;;31.52;19.90;;;;;;;6.15;60.49;101572.69;5055510;28;20403;-78
2023/03/03 02:25:50;;;;;;;28.90;19.48;;;;;;;6.20;60.51;101561.81;5055934;28;20424;-78
2023/03/03 02:28:16;;;;;;;30.83;19.83;;;;;;;6.25;60.42;101565.75;5061534;28;20764;-79
2023/03/03 02:30:41;;;;;;;30.83;19.98;;;;;;;6.31;60.34;101564.44;5076361;28;20411;-79
2023/03/03 02:33:07;;;;;;;28.52;19.02;;;;;;;6.37;60.08;101560.47;5063517;28;20884;-78
2023/03/03 02:35:38;;;;;;;28.30;18.77;;;;;;;6.44;59.62;101567.75;5056995;28;20396;-78
2023/03/03 02:38:22;;;;;;;31.25;19.17;;;;;;;6.47;59.66;101567.53;5056188;28;20420;-79
2023/03/03 02:41:08;;;;;;;26.83;19.15;;;;;;;6.30;59.52;101554.84;5057430;28;20388;-78
2023/03/03 02:43:43;;;;;;;28.67;20.27;;;;;;;6.23;60.36;101559.78;5055236;28;20388;-79
2023/03/03 02:46:08;;;;;;;31.20;19.90;;;;;;;6.27;60.11;101550.69;5059466;28;20739;-78
2023/03/03 02:48:34;;;;;;;31.77;21.67;;;;;;;6.36;59.99;101564.09;5067789;28;20407;-78
2023/03/03 02:50:59;;;;;;;31.13;21.00;;;;;;;6.39;60.00;101559.41;5075580;28;20421;-78
2023/03/03 02:53:25;;;;;;;29.83;20.20;;;;;;;6.42;60.02;101556.50;5075852;28;20390;-78
2023/03/03 02:55:50;;;;;;;31.83;20.13;;;;;;;6.41;59.96;101551.38;5074717;28;20493;-78
2023/03/03 02:58:16;;;;;;;33.63;20.77;;;;;;;6.36;60.03;101549.13;5074558;28;20398;-77
2023/03/03 03:00:41;;;;;;;32.27;20.73;;;;;;;6.48;59.78;101549.91;5072499;28;20773;-78
2023/03/03 03:03:07;;;;;;;30.65;20.67;;;;;;;6.49;59.82;101546.34;5060745;28;20908;-78
2023/03/03 03:05:32;;;;;;;31.87;21.47;;;;;;;6.46;59.76;101538.66;5069906;28;20478;-78
2023/03/03 03:07:57;;;;;;;30.67;20.63;;;;;;;6.53;59.49;101547.75;5074554;28;20736;-79
2023/03/03 03:10:23;;;;;;;32.73;20.43;;;;;;;6.48;59.67;101540.25;5073725;28;20415;-79
2023/03/03 03:12:48;;;;;;;34.15;21.27;;;;;;;6.48;59.68;101545.50;5075252;28;20494;-78
2023/03/03 03:15:14;;;;;;;34.63;22.57;;;;;;;6.42;59.64;101540.72;5074497;28;20387;-78
2023/03/03 03:17:40;;;;;;;35.25;21.63;;;;;;;6.44;59.83;101538.78;5058800;28;20389;-79
2023/03/03 03:20:06;;;;;;;33.87;22.03;;;;;;;6.53;59.64;101539.03;5074044;28;20375;-78
2023/03/03 03:22:32;;;;;;;33.17;21.30;;;;;;;6.58;59.59;101542.13;5066398;28;20884;-78
2023/03/03 03:24:57;;;;;;;34.90;23.53;;;;;;;6.55;59.60;101539.75;5054034;28;20479;-79
2023/03/03 03:27:22;;;;;;;34.73;23.37;;;;;;;6.54;59.68;101530.19;5054684;28;20889;-78
2023/03/03 03:29:48;;;;;;;37.27;23.57;;;;;;;6.50;59.70;101530.41;5055606;28;20456;-77
2023/03/03 03:32:13;;;;;;;35.72;22.65;;;;;;;6.60;59.54;101529.66;5074313;28;20387;-78
2023/03/03 03:34:39;;;;;;;35.40;22.50;;;;;;;6.70;59.48;101534.06;5074618;28;20386;-77
2023/03/03 03:37:05;;;;;;;33.97;24.10;;;;;;;6.81;59.18;101529.72;5073726;28;20466;-78
2023/03/03 03:39:30;;;;;;;34.87;23.10;;;;;;;6.85;58.85;101524.06;5073702;28;20477;-78
2023/03/03 03:41:56;;;;;;;32.33;22.50;;;;;;;6.82;58.70;101524.31;5072426;28;20434;-79
2023/03/03 03:44:24;;;;;;;35.60;22.00;;;;;;;6.77;58.74;101525.66;5057770;28;20426;-78
2023/03/03 03:46:49;;;;;;;37.17;21.60;;;;;;;6.78;58.98;101522.91;5070131;28;20453;-78
2023/03/03 03:49:15;;;;;;;33.17;21.80;;;;;;;6.87;58.99;101521.31;5059720;28;20392;-78
2023/03/03 03:51:40;;;;;;;33.37;22.30;;;;;;;6.87;58.55;101519.50;5051538;28;20404;-78
2023/03/03 03:54:06;;;;;;;33.50;21.63;;;;;;;6.85;58.65;101520.59;5051569;28;20465;-78
2023/03/03 03:56:32;;;;;;;32.40;21.77;;;;;;;6.82;58.83;101518.22;5053567;28;20392;-77
2023/03/03 03:58:57;;;;;;;31.37;21.57;;;;;;;6.80;59.00;101512.25;5052921;28;20377;-78
2023/03/03 04:01:24;;;;;;;36.92;22.85;;;;;;;6.87;58.90;101521.31;5053660;28;20389;-77
2023/03/03 04:03:49;;;;;;;32.75;22.10;;;;;;;6.86;58.83;101512.59;5052071;28;20417;-77
2023/03/03 04:06:15;;;;;;;34.13;22.50;;;;;;;6.74;58.38;101512.75;5064743;28;20422;-81
2023/03/03 04:08:40;;;;;;;31.77;21.73;;;;;;;6.69;58.82;101508.66;5071477;28;20763;-78
2023/03/03 04:11:05;;;;;;;31.60;22.10;;;;;;;6.65;58.89;101498.53;5061139;28;20420;-78
2023/03/03 04:13:33;;;;;;;40.43;25.73;;;;;;;6.72;59.01;101504.09;5052262;28;20392;-78
2023/03/03 04:16:02;;;;;;;38.55;24.00;;;;;;;6.81;58.81;101512.13;5050767;28;20385;-78
2023/03/03 04:18:28;;;;;;;36.65;24.85;;;;;;;6.79;58.68;101500.00;5051844;28;20399;-77
2023/03/03 04:20:53;;;;;;;34.42;23.10;;;;;;;6.80;58.38;101505.16;5056756;28;20398;-78
2023/03/03 04:23:20;;;;;;;33.55;22.23;;;;;;;6.66;58.41;101498.41;5071134;28;20387;-78
2023/03/03 04:25:47;;;;;;;36.00;22.50;;;;;;;6.56;58.99;101501.91;5069032;28;20414;-77
2023/03/03 04:28:13;;;;;;;35.15;23.55;;;;;;;6.59;59.01;101506.91;5051501;28;20928;-77
2023/03/03 04:30:39;;;;;;;36.75;24.70;;;;;;;6.61;58.92;101507.63;5051868;28;20913;-77
2023/03/03 04:33:05;;;;;;;36.28;22.67;;;;;;;6.60;58.74;101512.06;5051939;28;20451;-77
2023/03/03 04:35:30;;;;;;;33.80;21.65;;;;;;;6.58;58.79;101506.09;5052336;28;20403;-78
2023/03/03 04:37:56;;;;;;;34.23;22.97;;;;;;;6.62;58.71;101501.41;5069309;28;20487;-78
2023/03/03 04:40:21;;;;;;;32.30;22.27;;;;;;;6.68;58.94;101492.97;5069553;28;20379;-78
2023/03/03 04:42:47;;;;;;;38.38;24.25;;;;;;;6.67;58.59;101501.88;5062777;28;20393;-76
2023/03/03 04:45:12;;;;;;;33.87;21.83;;;;;;;6.67;58.61;101497.44;5071057;28;20401;-77
2023/03/03 04:47:38;;;;;;;40.97;27.17;;;;;;;6.68;58.62;101495.63;5055108;28;20474;-76
2023/03/03 04:50:04;;;;;;;36.53;24.50;;;;;;;6.72;58.40;101496.19;5068278;28;20738;-77
2023/03/03 04:52:30;;;;;;;40.38;25.13;;;;;;;6.80;58.33;101499.88;5069969;28;20386;-77
2023/03/03 04:54:55;;;;;;;34.20;22.57;;;;;;;6.67;58.46;101493.97;5074339;28;20390;-79
2023/03/03 04:57:21;;;;;;;33.47;23.07;;;;;;;6.60;58.74;101498.06;5066045;28;20786;-78
2023/03/03 04:59:46;;;;;;;36.43;23.27;;;;;;;6.45;58.83;101495.69;5055390;28;20407;-78
2023/03/03 05:02:12;;;;;;;32.03;21.97;;;;;;;6.50;59.19;101500.63;5067257;28;20930;-77
2023/03/03 05:04:37;;;;;;;31.50;21.57;;;;;;;6.39;59.37;101506.75;5058593;28;20514;-79
2023/03/03 05:07:03;;;;;;;35.80;23.73;;;;;;;6.34;59.27;101498.38;5069872;28;20386;-77
2023/03/03 05:09:28;;;;;;;42.53;26.87;;;;;;;6.43;59.18;101502.06;5071689;28;20506;-78
2023/03/03 05:11:54;;;;;;;37.50;23.23;;;;;;;6.43;59.31;101500.25;5063316;28;20431;-78
2023/03/03 05:14:19;;;;;;;35.28;23.67;;;;;;;6.55;59.17;101503.69;5067241;28;20399;-78
2023/03/03 05:16:45;;;;;;;40.67;25.47;;;;;;;6.46;59.18;101494.75;5062304;28;20390;-78
2023/03/03 05:19:11;;;;;;;38.43;24.37;;;;;;;6.46;59.13;101493.91;5059847;28;20860;-77
2023/03/03 05:21:41;;;;;;;39.85;24.00;;;;;;;6.45;59.33;101497.50;5053787;28;20474;-77
2023/03/03 05:24:07;;;;;;;40.60;25.63;;;;;;;6.35;59.30;101493.94;5053075;28;20416;-77
2023/03/03 05:26:33;;;;;;;40.60;25.38;;;;;;;6.38;59.29;101498.97;5056308;28;20387;-78
2023/03/03 05:28:58;;;;;;;41.72;25.30;;;;;;;6.41;59.60;101501.31;5061881;28;20381;-77
2023/03/03 05:31:26;;;;;;;39.08;24.20;;;;;;;6.39;59.62;101500.63;5058983;28;20403;-77
2023/03/03 05:33:51;;;;;;;40.38;24.67;;;;;;;6.32;59.44;101490.59;5066845;28;21080;-78
2023/03/03 05:36:17;;;;;;;36.03;23.13;;;;;;;6.22;59.61;101489.66;5067565;28;20383;-78
2023/03/03 05:38:42;;;;;;;35.97;22.33;;;;;;;6.12;60.07;101484.28;5068778;28;20383;-78
2023/03/03 05:41:08;;;;;;;45.60;23.58;;;;;;;6.13;60.45;101490.38;5063254;28;20472;-78
2023/03/03 05:43:34;;;;;;;40.90;26.38;;;;;;;6.24;60.04;101487.72;5069900;28;20418;-78
2023/03/03 05:45:59;;;;;;;40.07;24.90;;;;;;;6.30;60.01;101494.28;5054557;28;20451;-78
2023/03/03 05:48:26;;;;;;;39.43;25.40;;;;;;;6.40;59.88;101492.59;5064623;28;20449;-77
2023/03/03 05:50:51;;;;;;;40.45;24.92;;;;;;;6.35;59.95;101489.50;5053890;28;20491;-78
2023/03/03 05:53:17;;;;;;;37.50;24.45;;;;;;;6.45;60.02;101494.88;5066885;28;20777;-78
2023/03/03 05:55:42;;;;;;;42.17;24.77;;;;;;;6.39;59.60;101490.09;5063711;28;20383;-78
2023/03/03 05:58:08;;;;;;;39.23;24.37;;;;;;;6.40;59.88;101497.88;5058577;28;20377;-78
2023/03/03 06:00:33;;;;;;;34.55;20.58;;;;;;;6.40;59.60;101499.66;5061812;28;20444;-79
2023/03/03 06:02:59;;;;;;;34.53;23.08;;;;;;;6.41;59.64;101494.28;5074637;28;20482;-78
2023/03/03 06:05:24;;;;;;;42.40;23.97;;;;;;;6.47;59.75;101500.84;5062725;28;20376;-78
2023/03/03 06:07:50;;;;;;;33.10;21.33;;;;;;;6.43;59.58;101505.53;5057330;28;20388;-79
2023/03/03 06:10:15;;;;;;;40.63;24.57;;;;;;;6.43;59.85;101510.78;5071085;28;20440;-77
2023/03/03 06:12:41;;;;;;;40.08;24.25;;;;;;;6.39;59.75;101500.63;5060466;28;20390;-78
2023/03/03 06:15:07;;;;;;;39.87;24.40;;;;;;;6.38;60.10;101510.31;5064832;28;20849;-78
2023/03/03 06:17:33;;;;;;;40.22;25.73;;;;;;;6.37;59.81;101502.53;5067842;28;20379;-78
2023/03/03 06:19:58;;;;;;;37.78;24.10;;;;;;;6.26;60.11;101504.22;5056467;28;20483;-78
2023/03/03 06:22:23;;;;;;;36.50;24.47;;;;;;;6.38;60.26;101512.13;5068118;28;20869;-78
2023/03/03 06:24:51;;;;;;;39.07;24.53;;;;;;;6.45;59.93;101505.41;5059793;28;20859;-77
2023/03/03 06:27:17;;;;;;;40.20;24.88;;;;;;;6.46;59.78;101504.44;5073919;28;20433;-78
2023/03/03 06:29:42;;;;;;;41.08;27.17;;;;;;;6.54;59.92;101504.66;5059004;28;20388;-78
2023/03/03 06:32:08;;;;;;;37.00;24.00;;;;;;;6.52;59.62;101506.59;5069031;28;20451;-79
2023/03/03 06:34:33;;;;;;;36.97;24.10;;;;;;;6.54;60.06;101507.31;5054871;28;20389;-80
2023/03/03 06:36:59;;;;;;;44.08;25.08;;;;;;;6.51;59.81;101512.81;5062125;28;20478;-77
2023/03/03 06:39:24;;;;;;;35.38;23.90;;;;;;;6.51;60.05;101510.16;5067003;28;20388;-78
2023/03/03 06:41:50;;;;;;;37.28;23.40;;;;;;;6.48;59.86;101507.78;5064366;28;20842;-79
2023/03/03 06:44:16;;;;;;;35.13;23.53;;;;;;;6.50;60.22;101506.72;5063998;28;20394;-79
2023/03/03 06:46:41;;;;;;;39.10;22.53;;;;;;;6.37;60.23;101492.84;5064136;28;20475;-78
2023/03/03 06:49:07;;;;;;;38.77;24.17;;;;;;;6.41;60.84;101512.72;5064876;28;20435;-79
2023/03/03 06:51:37;;;;;;;46.45;27.13;;;;;;;6.67;60.66;101512.41;5064622;28;20490;-79
2023/03/03 06:54:10;;;;;;;43.58;26.35;;;;;;;6.65;60.21;101507.25;5064756;28;20387;-80
2023/03/03 06:56:37;;;;;;;38.53;23.50;;;;;;;6.77;59.97;101509.84;5068251;28;20394;-80
2023/03/03 06:59:10;;;;;;;38.30;24.25;;;;;;;6.71;60.22;101500.66;5066097;28;20462;-79
2023/03/03 07:01:37;;;;;;;34.65;23.77;;;;;;;6.68;59.98;101503.53;5064817;28;20375;-79
2023/03/03 07:04:21;;;;;;;35.03;23.15;;;;;;;6.70;60.02;101515.63;5071634;28;20447;-80
2023/03/03 07:06:47;;;;;;;35.83;22.83;;;;;;;6.68;59.71;101517.56;5064025;28;20387;-78
2023/03/03 07:09:22;;;;;;;34.83;23.57;;;;;;;6.60;59.92;101504.16;5064775;28;20387;-79
2023/03/03 07:11:49;;;;;;;36.13;23.55;;;;;;;6.74;59.83;101518.03;5054344;28;20465;-78
2023/03/03 07:14:18;;;;;;;41.65;25.60;;;;;;;6.94;59.42;101519.03;5070366;28;20762;-79
2023/03/03 07:16:43;;;;;;;37.30;22.38;;;;;;;7.06;58.54;101525.91;5058119;28;20425;-78
2023/03/03 07:19:22;;;;;;;33.15;21.45;;;;;;;6.89;58.87;101522.84;5065785;28;20460;-80
2023/03/03 07:21:50;;;;;;;34.92;22.92;;;;;;;6.86;58.55;101517.00;5071140;28;20467;-78
2023/03/03 07:24:22;;;;;;;34.67;21.75;;;;;;;7.04;58.64;101518.13;5092830;28;20451;-78
2023/03/03 07:26:47;;;;;;;35.17;23.67;;;;;;;7.05;58.38;101519.78;5076559;28;20382;-78
2023/03/03 07:29:32;;;;;;;38.25;23.67;;;;;;;7.18;58.04;101509.06;5086746;28;20468;-78
2023/03/03 07:32:00;;;;;;;38.15;23.10;;;;;;;7.24;57.70;101508.56;5095238;28;20403;-78
2023/03/03 07:34:37;;;;;;;38.50;22.02;;;;;;;7.16;57.60;101516.25;5093248;28;20388;-79
2023/03/03 07:37:26;;;;;;;36.67;21.95;;;;;;;7.06;57.57;101504.84;5092349;28;20445;-77
2023/03/03 07:39:51;;;;;;;34.30;22.40;;;;;;;6.99;57.50;101498.41;5054645;28;20377;-80
2023/03/03 07:42:20;;;;;;;34.80;22.33;;;;;;;7.04;57.70;101498.81;5054239;28;20385;-78
2023/03/03 07:44:47;;;;;;;39.45;23.17;;;;;;;7.20;57.44;101498.38;5053562;28;20400;-81
2023/03/03 07:47:35;;;;;;;37.85;22.40;;;;;;;7.42;57.44;101485.06;5066608;28;20407;-78
2023/03/03 07:50:17;;;;;;;37.72;21.27;;;;;;;7.42;55.74;101486.88;5064040;28;20423;-79
2023/03/03 07:52:55;;;;;;;38.50;22.90;;;;;;;7.29;56.89;101489.69;5068763;28;20395;-80
2023/03/03 07:55:20;;;;;;;36.13;21.85;;;;;;;7.31;56.22;101497.47;5087259;28;20387;-79
2023/03/03 07:57:46;;;;;;;35.00;22.03;;;;;;;7.40;56.28;101489.66;5070670;28;20460;-79
2023/03/03 08:00:17;;;;;;;37.17;22.60;;;;;;;7.45;56.11;101494.50;5070218;28;20375;-78
2023/03/03 08:02:46;;;;;;;38.90;23.75;;;;;;;7.52;55.93;101498.31;5059836;28;20511;-78
2023/03/03 08:05:29;;;;;;;34.33;22.88;;;;;;;7.81;55.73;101494.97;5061164;28;20474;-79
2023/03/03 08:08:10;;;;;;;35.00;21.48;;;;;;;7.69;55.64;101490.75;5052850;28;20400;-79
2023/03/03 08:10:46;;;;;;;37.55;21.88;;;;;;;7.76;55.15;101492.75;5052532;28;20420;-78
2023/03/03 08:13:22;;;;;;;34.38;20.73;;;;;;;7.56;55.08;101501.50;5050738;28;20861;-80
2023/03/03 08:16:01;;;;;;;32.75;21.55;;;;;;;7.54;55.40;101499.00;5051357;28;20395;-79
2023/03/03 08:18:38;;;;;;;33.90;21.63;;;;;;;7.68;55.08;101497.00;5071653;28;20450;-80
2023/03/03 08:21:14;;;;;;;36.33;21.70;;;;;;;7.79;54.70;101489.81;5071338;28;20475;-79
2023/03/03 08:23:40;;;;;;;34.13;21.15;;;;;;;7.99;54.35;101490.72;5055680;28;20388;-79
2023/03/03 08:26:06;;;;;;;38.85;22.63;;;;;;;8.10;54.23;101481.03;5056181;28;20390;-78
2023/03/03 08:28:31;;;;;;;34.83;22.00;;;;;;;8.30;54.42;101482.78;5071429;28;20383;-79
2023/03/03 08:30:57;;;;;;;27.63;17.27;;;;;;;7.94;53.02;101482.41;5068419;28;20495;-78
2023/03/03 08:33:22;;;;;;;33.03;20.03;;;;;;;7.79;53.85;101486.34;5070717;28;20383;-78
2023/03/03 08:35:48;;;;;;;28.87;20.00;;;;;;;8.04;54.67;101483.25;5060027;28;20438;-79
2023/03/03 08:38:17;;;;;;;31.10;20.08;;;;;;;8.10;53.65;101470.47;5067185;28;20923;-79
2023/03/03 08:40:43;;;;;;;30.67;20.35;;;;;;;8.24;53.61;101478.00;5053033;28;20888;-78
2023/03/03 08:43:09;;;;;;;31.48;21.15;;;;;;;8.33;53.85;101474.56;5051580;28;20395;-79
2023/03/03 08:45:35;;;;;;;34.08;20.40;;;;;;;8.34;53.25;101481.53;5053985;28;20768;-80
2023/03/03 08:48:03;;;;;;;34.17;19.63;;;;;;;8.25;53.30;101474.41;5058491;28;20907;-79
2023/03/03 08:50:28;;;;;;;40.83;21.33;;;;;;;8.34;53.36;101472.75;5064179;28;20408;-78
2023/03/03 08:52:54;;;;;;;32.93;19.87;;;;;;;8.48;52.77;101474.19;5058478;28;20907;-80
2023/03/03 08:55:20;;;;;;;33.80;19.83;;;;;;;8.58;53.03;101473.22;5063427;28;20403;-80
2023/03/03 08:57:46;;;;;;;36.72;21.10;;;;;;;8.78;52.73;101481.16;5058365;28;20463;-79
2023/03/03 09:00:15;;;;;;;32.85;20.30;;;;;;;8.84;52.42;101479.75;5072136;28;20388;-79
2023/03/03 09:02:40;;;;;;;34.25;21.25;;;;;;;8.99;52.67;101475.72;5065185;28;20415;-80
2023/03/03 09:05:07;;;;;;;36.70;22.27;;;;;;;8.95;52.17;101471.72;5064237;28;20374;-80
2023/03/03 09:07:33;;;;;;;33.40;21.25;;;;;;;9.07;52.23;101473.19;5070308;28;20379;-79
2023/03/03 09:09:58;;;;;;;36.27;20.63;;;;;;;9.15;51.87;101473.34;5066979;28;20493;-78
2023/03/03 09:12:32;;;;;;;32.90;20.43;;;;;;;9.10;51.96;101474.75;5065085;28;20771;-81
2023/03/03 09:15:01;;;;;;;36.50;21.47;;;;;;;8.96;51.66;101484.75;5061917;28;20457;-82
2023/03/03 09:17:34;;;;;;;32.37;19.80;;;;;;;8.97;52.06;101475.88;5061540;28;20566;-80
2023/03/03 09:20:21;;;;;;;33.65;22.65;;;;;;;9.14;51.53;101465.53;5069106;28;20459;-82
2023/03/03 09:22:48;;;;;;;37.40;20.67;;;;;;;9.29;51.85;101473.84;5070080;28;20393;-79
2023/03/03 09:25:35;;;;;;;38.80;21.75;;;;;;;9.22;51.24;101473.63;5069928;28;20426;-79
2023/03/03 09:28:01;;;;;;;35.50;21.20;;;;;;;8.96;51.70;101468.06;5069952;28;20760;-79
2023/03/03 09:30:47;;;;;;;34.58;20.63;;;;;;;9.03;51.74;101465.72;5073235;28;20403;-79
2023/03/03 09:33:30;;;;;;;36.65;21.58;;;;;;;9.09;51.62;101460.69;5071216;28;20502;-79
2023/03/03 09:36:20;;;;;;;33.28;20.98;;;;;;;9.31;51.55;101456.88;5074091;28;20383;-79
2023/03/03 09:38:46;;;;;;;33.60;21.35;;;;;;;9.45;51.02;101455.56;5075515;28;20408;-78
2023/03/03 09:41:12;;;;;;;39.85;21.00;;;;;;;9.33;50.94;101454.91;5073067;28;20516;-80
2023/03/03 09:44:12;;;;;;;34.00;20.90;;;;;;;9.34;50.68;101450.47;5071677;28;20774;-80
2023/03/03 09:46:52;;;;;;;40.20;22.10;;;;;;;9.21;50.69;101458.72;5066573;28;20475;-81
2023/03/03 09:49:43;;;;;;;44.17;23.48;;;;;;;9.25;51.27;101454.78;5074046;28;20488;-80
2023/03/03 09:52:27;;;;;;;39.53;26.33;;;;;;;9.57;51.87;101458.88;5071694;28;20752;-80
2023/03/03 09:55:14;;;;;;;52.22;33.25;;;;;;;9.74;51.49;101451.97;5073938;28;20378;-79
2023/03/03 09:58:01;;;;;;;47.37;30.77;;;;;;;9.83;52.23;101442.31;5073062;28;20386;-80
2023/03/03 10:00:48;;;;;;;41.72;24.60;;;;;;;9.93;51.62;101443.94;5074087;28;20407;-80
2023/03/03 10:03:19;;;;;;;37.97;22.75;;;;;;;9.91;51.67;101450.38;5070666;28;20383;-79
2023/03/03 10:05:52;;;;;;;43.93;24.43;;;;;;;9.98;51.90;101450.63;5072349;28;20444;-80
2023/03/03 10:08:36;;;;;;;39.22;24.02;;;;;;;9.91;51.17;101445.09;5073179;28;20382;-78
2023/03/03 10:11:08;;;;;;;37.78;23.25;;;;;;;9.79;51.41;101433.00;5076847;28;20404;-79
2023/03/03 10:13:52;;;;;;;44.35;25.63;;;;;;;9.85;51.63;101440.34;5070787;28;20928;-79
2023/03/03 10:16:36;;;;;;;45.22;24.90;;;;;;;9.80;51.21;101445.28;5072833;28;20379;-79
2023/03/03 10:19:13;;;;;;;40.85;24.52;;;;;;;9.79;51.21;101438.31;5060874;28;20386;-78
2023/03/03 10:22:05;;;;;;;41.05;23.38;;;;;;;9.82;51.67;101438.03;5068119;28;20383;-80
2023/03/03 10:24:52;;;;;;;39.27;24.40;;;;;;;9.83;51.90;101434.38;5072124;28;20770;-80
2023/03/03 10:27:36;;;;;;;38.45;22.33;;;;;;;9.58;52.16;101428.81;5073734;28;20426;-79
2023/03/03 10:30:56;;;;;;;40.35;22.80;;;;;;;9.14;52.24;101428.50;5073263;28;20750;-79
2023/03/03 10:33:40;;;;;;;39.58;23.13;;;;;;;9.16;52.75;101432.69;5057550;28;20490;-79
2023/03/03 10:36:17;;;;;;;40.70;24.00;;;;;;;9.26;52.16;101424.72;5072992;28;20402;-80
2023/03/03 10:38:54;;;;;;;40.83;24.00;;;;;;;9.50;52.46;101418.09;5060657;28;20462;-80
2023/03/03 10:41:37;;;;;;;50.47;26.30;;;;;;;9.65;51.59;101416.66;5054857;28;20459;-80
2023/03/03 10:44:06;;;;;;;42.03;25.98;;;;;;;9.59;51.57;101405.81;5054839;28;20388;-80
2023/03/03 10:46:40;;;;;;;44.40;25.45;;;;;;;9.73;51.82;101410.63;5054738;28;20409;-80
2023/03/03 10:49:21;;;;;;;42.45;26.42;;;;;;;9.52;51.56;101402.91;5054336;28;20395;-80
2023/03/03 10:51:58;;;;;;;45.55;27.05;;;;;;;9.80;51.51;101389.69;5054238;28;20411;-80
2023/03/03 10:54:33;;;;;;;43.45;25.52;;;;;;;10.12;51.46;101390.03;5054412;28;20395;-80
2023/03/03 10:57:22;;;;;;;47.55;26.52;;;;;;;10.35;50.83;101396.72;5059569;28;20478;-79
2023/03/03 11:00:04;;;;;;;46.17;25.13;;;;;;;10.42;51.01;101392.47;5064161;28;20398;-79
2023/03/03 11:02:52;;;;;;;45.43;25.77;;;;;;;10.35;51.17;101379.00;5065694;28;20425;-80
2023/03/03 11:05:46;;;;;;;43.05;25.30;;;;;;;10.49;51.17;101385.59;5068620;28;20395;-80
2023/03/03 11:08:41;;;;;;;48.03;24.45;;;;;;;10.36;50.64;101374.53;5060565;28;20381;-80
2023/03/03 11:11:31;;;;;;;44.60;24.42;;;;;;;10.24;50.75;101376.53;5057246;28;20444;-80
2023/03/03 11:14:08;;;;;;;45.33;24.70;;;;;;;10.22;51.22;101370.56;5070584;28;20478;-78
2023/03/03 11:16:46;;;;;;;47.58;25.55;;;;;;;10.23;50.45;101374.91;5069994;28;20391;-79
2023/03/03 11:19:39;;;;;;;46.85;24.17;;;;;;;10.29;50.96;101368.97;5071857;28;20371;-79
2023/03/03 11:22:34;;;;;;;40.17;23.90;;;;;;;10.40;50.35;101360.81;5062513;28;20468;-79
2023/03/03 11:25:29;;;;;;;42.95;24.40;;;;;;;10.58;50.04;101365.28;5069663;28;20802;-79
2023/03/03 11:28:13;;;;;;;39.72;23.20;;;;;;;10.67;50.01;101353.75;5068079;28;20887;-79
2023/03/03 11:31:09;;;;;;;39.08;22.52;;;;;;;10.95;50.13;101364.19;5068833;28;20413;-79
2023/03/03 11:33:55;;;;;;;38.15;22.20;;;;;;;10.95;49.57;101354.44;5067584;28;20552;-81